Time;durP1;ratioP1;P1;durP2;ratioP2;P2;SDS_P1;SDS_P2;PMS_P1;PMS_P2;Temp;Humidity;BMP_temperature;BMP_pressure;BME280_temperature;BME280_humidity;BME280_pressure;Samples;Min_cycle;Max_cycle;Signal;HPM_P1;HPM_P2
2023/02/26 00:01:21;;;;;;;1.27;1.10;;;;;;;2.52;74.76;100924.00;5006478;28;20449;-40
2023/02/26 00:03:49;;;;;;;1.73;0.43;;;;;;;2.50;74.26;100921.34;5006479;28;20049;-42
2023/02/26 00:06:16;;;;;;;1.67;1.27;;;;;;;2.48;74.94;100920.44;5006244;28;20050;-44
2023/02/26 00:08:43;;;;;;;4.57;0.70;;;;;;;2.52;73.57;100930.00;5013550;28;20049;-43
2023/02/26 00:11:10;;;;;;;1.98;0.50;;;;;;;2.49;74.43;100929.84;5005608;28;20729;-40
2023/02/26 00:13:40;;;;;;;5.18;0.50;;;;;;;2.52;74.37;100932.53;4989766;28;20080;-43
2023/02/26 00:19:01;;;;;;;3.70;2.15;;;;;;;2.57;74.60;100925.09;5061584;27;20397;-42
2023/02/26 00:21:29;;;;;;;3.60;1.70;;;;;;;2.53;74.60;100923.19;5043705;28;20061;-44
2023/02/26 00:23:57;;;;;;;2.00;1.30;;;;;;;2.57;74.67;100923.38;5044693;28;20057;-43
2023/02/26 00:26:25;;;;;;;2.88;1.55;;;;;;;2.55;74.42;100935.25;5053594;28;20049;-39
2023/02/26 00:28:54;;;;;;;9.02;2.25;;;;;;;2.47;74.98;100925.47;5043006;28;20137;-46
2023/02/26 00:31:23;;;;;;;4.93;1.52;;;;;;;2.46;73.90;100945.03;5071171;28;20094;-44
2023/02/26 00:33:52;;;;;;;5.05;1.60;;;;;;;2.42;74.31;100945.72;5062624;28;20056;-45
2023/02/26 00:39:39;;;;;;;5.80;1.92;;;;;;;2.70;73.18;100946.94;5068020;27;20886;-41
2023/02/26 00:42:07;;;;;;;5.55;0.80;;;;;;;2.48;73.94;100948.56;5025328;28;20044;-49
2023/02/26 00:44:34;;;;;;;4.65;0.50;;;;;;;2.44;74.10;100941.56;5043869;28;20131;-42
2023/02/26 00:50:04;;;;;;;1.70;1.48;;;;;;;2.31;74.62;100946.13;5066490;27;20391;-43
2023/02/26 00:52:42;;;;;;;3.10;1.88;;;;;;;2.37;74.67;100944.66;5046080;28;20504;-44
2023/02/26 00:55:09;;;;;;;3.58;1.63;;;;;;;2.30;76.23;100949.47;5059040;28;20048;-44
2023/02/26 00:57:36;;;;;;;5.63;1.88;;;;;;;2.26;75.77;100950.13;5082124;28;20075;-43
2023/02/26 01:00:06;;;;;;;4.40;2.05;;;;;;;2.29;75.27;100946.84;5073691;28;20124;-42
2023/02/26 01:02:34;;;;;;;;;;;;;;;2.21;75.32;100949.06;5063016;28;20594;-43
2023/02/26 01:05:01;;;;;;;3.78;1.38;;;;;;;2.23;75.88;100947.44;5081365;28;20447;-41
2023/02/26 01:07:29;;;;;;;2.40;1.63;;;;;;;2.24;75.13;100951.75;5083987;28;20135;-42
2023/02/26 01:09:56;;;;;;;2.85;2.10;;;;;;;2.22;75.09;100949.91;5063997;28;20108;-43
2023/02/26 01:12:22;;;;;;;7.22;1.98;;;;;;;2.22;75.18;100949.91;5043665;28;20380;-43
2023/02/26 01:14:51;;;;;;;5.40;1.60;;;;;;;2.14;75.91;100950.47;5043794;28;20342;-43
2023/02/26 01:25:23;;;;;;;2.35;1.15;;;;;;;2.11;75.89;100951.97;5043237;27;20398;-43
2023/02/26 01:27:49;;;;;;;3.47;0.77;;;;;;;2.11;76.18;100957.09;5052878;28;20046;-41
2023/02/26 01:30:17;;;;;;;5.55;0.75;;;;;;;2.11;74.98;100962.22;5018902;28;20075;-42
2023/02/26 01:33:23;;;;;;;3.65;0.93;;;;;;;2.09;75.91;100964.69;5024435;28;20042;-44
2023/02/26 01:36:01;;;;;;;3.75;1.10;;;;;;;2.09;77.01;100966.38;5033925;28;20552;-45
2023/02/26 01:41:25;;;;;;;5.95;1.17;;;;;;;2.13;76.93;100968.28;5027992;28;20406;-43
2023/02/26 01:49:24;;;;;;;6.55;1.30;;;;;;;2.27;76.75;100968.91;5074272;27;20399;-45
2023/02/26 01:51:53;;;;;;;7.05;1.27;;;;;;;2.27;76.16;100969.78;5062829;28;20093;-42
2023/02/26 01:54:24;;;;;;;2.97;1.23;;;;;;;2.35;75.66;100976.91;5083267;28;20072;-42
2023/02/26 01:56:56;;;;;;;5.28;0.90;;;;;;;2.35;76.66;100976.91;5084295;27;20048;-41
2023/02/26 01:59:23;;;;;;;7.20;0.70;;;;;;;2.36;77.16;100988.94;5061481;28;20509;-40
2023/02/26 02:01:53;;;;;;;6.97;1.13;;;;;;;2.39;76.41;100999.28;5066948;28;20045;-41
2023/02/26 02:04:20;;;;;;;4.20;1.20;;;;;;;2.39;76.59;100995.03;5066298;28;20094;-43
2023/02/26 02:06:47;;;;;;;6.53;0.50;;;;;;;2.40;76.09;101001.03;5060175;28;20081;-43
2023/02/26 02:09:14;;;;;;;3.13;0.90;;;;;;;2.42;77.05;101009.66;5046122;28;20060;-42
2023/02/26 02:12:00;;;;;;;14.75;1.10;;;;;;;2.45;75.68;101004.69;5064157;28;20052;-43
2023/02/26 02:23:42;;;;;;;8.02;0.88;;;;;;;2.63;75.18;101006.34;5061957;27;20419;-42
2023/02/26 02:26:39;;;;;;;4.13;0.47;;;;;;;2.64;75.62;101005.53;5030658;28;20552;-39
2023/02/26 02:32:05;;;;;;;3.97;2.75;;;;;;;2.67;75.16;100996.28;5025866;27;20394;-43
2023/02/26 02:40:06;;;;;;;2.85;1.30;;;;;;;2.65;75.15;101012.38;5041603;27;20762;-43
2023/02/26 02:42:40;;;;;;;3.25;0.90;;;;;;;2.66;75.47;101014.13;5020937;28;20326;-40
2023/02/26 02:45:15;;;;;;;5.25;1.60;;;;;;;2.68;75.22;101010.84;5020482;28;20494;-44
2023/02/26 02:47:47;;;;;;;2.80;1.08;;;;;;;2.64;76.39;101015.75;5022994;28;20089;-42
2023/02/26 02:50:31;;;;;;;1.35;0.63;;;;;;;2.63;75.40;101019.97;5024909;28;20046;-42
2023/02/26 02:53:05;;;;;;;5.75;0.70;;;;;;;2.62;75.31;101013.13;5024423;28;20605;-43
2023/02/26 02:55:37;;;;;;;3.17;0.82;;;;;;;2.52;75.62;101009.28;5024478;28;20124;-43
2023/02/26 02:58:09;;;;;;;4.25;1.02;;;;;;;2.51;76.67;101010.09;5033195;28;20050;-45
2023/02/26 03:00:45;;;;;;;1.67;0.95;;;;;;;2.50;76.75;101018.53;5030346;28;20505;-42
2023/02/26 03:03:22;;;;;;;3.35;0.95;;;;;;;2.44;76.22;101018.28;5025896;28;20096;-41
2023/02/26 03:05:49;;;;;;;0.65;0.25;;;;;;;2.40;76.79;101017.25;5022207;28;20081;-42
2023/02/26 03:08:21;;;;;;;3.47;0.70;;;;;;;2.38;76.92;101020.53;5024373;28;20072;-40
2023/02/26 03:10:47;;;;;;;0.73;0.40;;;;;;;2.33;75.88;101019.47;5032704;28;20103;-43
2023/02/26 03:13:17;;;;;;;2.78;1.10;;;;;;;2.33;76.29;101011.78;5030357;28;20054;-42
2023/02/26 03:19:27;;;;;;;2.33;0.82;;;;;;;2.26;76.72;101014.03;5064104;28;20411;-43
2023/02/26 03:22:33;;;;;;;3.10;0.70;;;;;;;2.22;76.78;101016.38;5051172;28;20128;-43
2023/02/26 03:25:09;;;;;;;2.58;1.40;;;;;;;2.18;77.65;101011.16;5061831;28;20128;-43
2023/02/26 03:33:59;;;;;;;4.70;1.40;;;;;;;2.14;76.31;101019.47;5067551;27;20401;-41
2023/02/26 03:39:11;;;;;;;4.55;1.42;;;;;;;2.15;76.94;101031.44;5121108;27;20393;-44
2023/02/26 03:41:45;;;;;;;2.88;2.67;;;;;;;2.13;77.58;101027.06;5083682;28;20075;-45
2023/02/26 03:44:18;;;;;;;2.72;0.50;;;;;;;2.12;77.35;101030.41;5085011;28;20471;-41
2023/02/26 03:46:50;;;;;;;7.50;2.45;;;;;;;2.12;76.45;101032.97;5084844;27;20048;-45
2023/02/26 03:49:24;;;;;;;2.55;1.70;;;;;;;2.10;77.86;101038.03;5093789;28;20106;-42
2023/02/26 03:51:52;;;;;;;1.48;1.30;;;;;;;2.12;76.75;101030.41;5083651;28;20049;-42
2023/02/26 03:54:25;;;;;;;5.35;2.38;;;;;;;2.13;77.13;101037.28;5084462;28;20044;-42
2023/02/26 03:56:52;;;;;;;4.40;1.77;;;;;;;2.14;77.16;101041.59;5084182;28;20056;-45
2023/02/26 03:59:19;;;;;;;8.93;2.53;;;;;;;2.13;77.39;101037.28;5096587;28;20118;-42
2023/02/26 04:04:48;;;;;;;3.15;0.63;;;;;;;2.07;77.06;101042.09;5074461;27;20407;-43
2023/02/26 04:07:16;;;;;;;1.95;0.82;;;;;;;2.03;77.40;101057.28;5041654;28;20106;-40
2023/02/26 04:09:45;;;;;;;2.53;0.50;;;;;;;2.03;77.02;101052.16;5044277;28;20071;-40
2023/02/26 04:12:15;;;;;;;3.03;0.98;;;;;;;2.05;77.67;101048.00;5043741;28;20469;-43
2023/02/26 04:14:42;;;;;;;1.63;0.40;;;;;;;2.01;77.52;101048.69;5043157;28;20136;-42
2023/02/26 04:17:09;;;;;;;5.05;0.80;;;;;;;1.99;76.34;101060.50;5044709;28;20076;-39
2023/02/26 04:19:35;;;;;;;9.30;1.05;;;;;;;2.01;77.00;101058.91;5083032;28;20074;-42
2023/02/26 04:22:02;;;;;;;4.00;1.05;;;;;;;2.00;76.88;101062.25;5093020;28;20071;-44
2023/02/26 04:24:28;;;;;;;3.15;0.50;;;;;;;1.98;76.76;101063.84;5084611;28;20052;-42
2023/02/26 04:26:55;;;;;;;2.00;0.88;;;;;;;1.95;77.72;101058.59;5084065;28;22786;-41
2023/02/26 04:29:22;;;;;;;5.18;1.10;;;;;;;1.95;78.07;101063.69;5082177;28;20075;-41
2023/02/26 04:31:48;;;;;;;5.70;1.42;;;;;;;1.95;77.67;101071.34;5076283;28;20504;-44
2023/02/26 04:34:15;;;;;;;3.47;1.02;;;;;;;1.91;78.38;101072.00;5074943;28;20044;-43
2023/02/26 04:36:41;;;;;;;1.25;0.43;;;;;;;1.89;77.39;101063.41;5096115;28;20097;-42
2023/02/26 04:39:09;;;;;;;10.65;0.82;;;;;;;1.91;77.60;101066.91;5090175;28;20121;-43
2023/02/26 04:41:37;;;;;;;1.05;0.50;;;;;;;1.92;77.18;101063.53;5082526;28;20078;-44
2023/02/26 04:44:04;;;;;;;8.77;1.08;;;;;;;1.91;77.66;101082.22;5085736;28;20071;-43
2023/02/26 04:46:32;;;;;;;8.68;1.20;;;;;;;1.92;77.96;101068.66;5080277;28;20075;-44
2023/02/26 04:48:58;;;;;;;8.23;0.65;;;;;;;1.90;77.74;101072.81;5081501;28;20049;-42
2023/02/26 04:51:25;;;;;;;7.40;1.05;;;;;;;1.92;78.44;101074.66;5083333;28;20082;-45
2023/02/26 04:53:52;;;;;;;6.05;1.00;;;;;;;1.91;78.04;101082.22;5083391;28;20144;-43
2023/02/26 04:56:18;;;;;;;3.63;0.60;;;;;;;1.93;77.50;101080.66;5074915;28;20088;-44
2023/02/26 04:58:45;;;;;;;5.60;0.93;;;;;;;1.95;78.49;101086.69;5086717;28;20080;-42
2023/02/26 05:01:12;;;;;;;2.95;0.93;;;;;;;2.01;77.16;101094.69;5082016;28;20101;-42
2023/02/26 05:03:39;;;;;;;4.85;0.75;;;;;;;2.00;78.00;101090.38;5095898;28;20048;-43
2023/02/26 05:06:06;;;;;;;6.57;1.92;;;;;;;2.06;77.83;101092.31;5103016;28;20083;-42
2023/02/26 05:08:32;;;;;;;4.57;1.25;;;;;;;2.07;78.67;101091.53;5085565;28;20500;-41
2023/02/26 05:10:59;;;;;;;8.43;1.33;;;;;;;2.14;77.33;101097.81;5069658;28;20068;-42
2023/02/26 05:13:26;;;;;;;2.17;0.70;;;;;;;2.15;78.24;101097.00;5085677;28;20040;-45
2023/02/26 05:15:53;;;;;;;3.53;1.13;;;;;;;2.21;77.40;101102.44;5089769;28;20101;-44
2023/02/26 05:18:20;;;;;;;5.35;0.55;;;;;;;2.21;76.82;101097.31;5068346;28;20060;-39
2023/02/26 05:20:52;;;;;;;6.10;0.52;;;;;;;2.25;77.52;101099.22;5049224;28;20463;-43
2023/02/26 05:23:19;;;;;;;3.88;0.50;;;;;;;2.26;78.07;101116.31;5070050;28;20127;-42
2023/02/26 05:25:46;;;;;;;5.95;1.05;;;;;;;2.25;77.07;101118.78;5088376;28;20055;-41
2023/02/26 05:28:14;;;;;;;3.80;0.73;;;;;;;2.26;76.61;101121.41;5085491;28;20103;-43
2023/02/26 05:30:42;;;;;;;4.38;0.85;;;;;;;2.25;77.41;101121.34;5067166;28;20574;-43
2023/02/26 05:33:08;;;;;;;5.28;1.10;;;;;;;2.20;77.41;101127.91;5055347;28;20044;-39
2023/02/26 05:35:35;;;;;;;7.68;0.95;;;;;;;2.19;77.31;101124.47;5070047;28;20098;-44
2023/02/26 05:38:01;;;;;;;2.92;0.73;;;;;;;2.17;77.74;101128.66;5065769;28;20485;-40
2023/02/26 05:40:28;;;;;;;0.52;0.20;;;;;;;2.13;76.96;101126.75;5065648;28;20052;-42
2023/02/26 05:42:55;;;;;;;2.55;0.63;;;;;;;2.12;77.52;101137.75;5087281;28;20453;-41
2023/02/26 05:45:21;;;;;;;4.70;0.98;;;;;;;2.10;77.00;101124.94;5075431;28;20056;-40
2023/02/26 05:47:48;;;;;;;5.40;1.00;;;;;;;2.10;77.48;101134.25;5069759;28;20048;-43
2023/02/26 05:52:51;;;;;;;3.10;1.85;;;;;;;2.13;77.66;101136.97;5048266;27;20397;-41
2023/02/26 05:55:17;;;;;;;7.78;1.70;;;;;;;2.16;77.47;101139.69;5044445;28;20567;-45
2023/02/26 05:57:44;;;;;;;4.40;2.35;;;;;;;2.19;77.66;101139.81;5059302;28;20045;-44
2023/02/26 06:00:11;;;;;;;4.60;2.47;;;;;;;2.24;78.36;101148.59;5060810;28;20077;-40
2023/02/26 06:02:38;;;;;;;2.38;0.82;;;;;;;2.27;78.17;101155.53;5044787;28;20136;-47
2023/02/26 06:05:06;;;;;;;2.95;2.22;;;;;;;2.31;78.18;101165.13;5064030;28;20049;-42
2023/02/26 06:07:32;;;;;;;5.22;2.38;;;;;;;2.33;77.27;101157.53;5063892;28;20040;-40
2023/02/26 06:10:00;;;;;;;4.88;2.13;;;;;;;2.36;76.65;101157.69;5056930;28;20719;-44
2023/02/26 06:12:26;;;;;;;5.18;1.15;;;;;;;2.39;76.97;101168.03;5063397;28;20438;-44
2023/02/26 06:14:53;;;;;;;9.07;2.47;;;;;;;2.40;76.33;101169.81;5060706;28;20551;-41
2023/02/26 06:17:19;;;;;;;3.40;2.22;;;;;;;2.41;76.89;101166.44;5079176;28;20119;-40
2023/02/26 06:19:46;;;;;;;8.60;2.15;;;;;;;2.43;77.69;101175.06;5084297;28;20470;-43
2023/02/26 06:22:13;;;;;;;7.95;2.38;;;;;;;2.43;76.99;101170.81;5082937;28;20516;-43
2023/02/26 06:24:39;;;;;;;5.30;2.00;;;;;;;2.43;76.27;101175.06;5084003;28;20064;-42
2023/02/26 06:27:06;;;;;;;10.25;2.15;;;;;;;2.45;77.23;101178.56;5082461;28;20071;-44
2023/02/26 06:29:33;;;;;;;3.60;1.83;;;;;;;2.44;76.11;101181.94;5076843;28;20072;-44
2023/02/26 06:31:59;;;;;;;3.95;1.90;;;;;;;2.44;76.62;101184.50;5081599;28;20098;-47
2023/02/26 06:34:26;;;;;;;9.07;3.08;;;;;;;2.44;77.45;101187.06;5083274;28;20044;-41
2023/02/26 06:36:53;;;;;;;5.78;2.28;;;;;;;2.44;76.40;101187.06;5083948;28;20135;-42
2023/02/26 06:39:19;;;;;;;5.32;2.75;;;;;;;2.41;76.54;101189.47;5083500;28;20082;-42
2023/02/26 06:41:46;;;;;;;5.03;1.73;;;;;;;2.42;76.08;101198.88;5081476;28;20071;-43
2023/02/26 06:44:13;;;;;;;3.88;2.35;;;;;;;2.43;76.91;101196.41;5063578;28;20134;-43
2023/02/26 06:46:39;;;;;;;5.35;1.98;;;;;;;2.41;76.61;101192.00;5062412;28;20052;-40
2023/02/26 06:49:06;;;;;;;3.92;1.95;;;;;;;2.41;77.22;101184.34;5071878;28;20097;-41
2023/02/26 06:51:33;;;;;;;6.53;2.17;;;;;;;2.41;76.71;101192.00;5083167;28;20087;-42
2023/02/26 06:54:00;;;;;;;2.42;1.58;;;;;;;2.41;76.83;101192.00;5083969;28;20067;-43
2023/02/26 06:56:27;;;;;;;4.30;2.53;;;;;;;2.44;76.04;101197.28;5083839;28;20109;-42
2023/02/26 06:58:54;;;;;;;6.68;2.20;;;;;;;2.44;76.47;101202.41;5082040;28;20083;-42
2023/02/26 07:01:20;;;;;;;5.68;2.45;;;;;;;2.43;77.04;101204.06;5079053;28;20072;-44
2023/02/26 07:03:47;;;;;;;3.90;2.17;;;;;;;2.47;75.85;101204.22;5073070;28;20565;-43
2023/02/26 07:06:14;;;;;;;6.82;2.38;;;;;;;2.45;76.96;101209.25;5075845;28;20076;-41
2023/02/26 07:09:00;;;;;;;7.35;2.47;;;;;;;2.46;76.64;101212.72;5041719;28;20055;-45
2023/02/26 07:11:27;;;;;;;3.78;1.80;;;;;;;2.43;76.49;101214.31;5050096;28;20072;-45
2023/02/26 07:13:54;;;;;;;2.88;2.15;;;;;;;2.45;76.37;101214.38;5048040;28;20087;-47
2023/02/26 07:16:20;;;;;;;4.72;4.32;;;;;;;2.47;75.99;101217.00;5078492;28;20086;-41
2023/02/26 07:18:47;;;;;;;4.20;1.63;;;;;;;2.49;77.14;101218.84;5089632;28;20054;-40
2023/02/26 07:21:14;;;;;;;9.10;2.30;;;;;;;2.52;76.56;101230.91;5088957;28;20073;-39
2023/02/26 07:23:40;;;;;;;9.00;2.20;;;;;;;2.54;75.69;101235.28;5076758;28;20048;-39
2023/02/26 07:26:07;;;;;;;4.20;2.05;;;;;;;2.53;76.95;101248.88;5049946;28;20053;-40
2023/02/26 07:28:34;;;;;;;9.40;2.35;;;;;;;2.55;77.08;101252.41;5048633;28;20049;-41
2023/02/26 07:31:01;;;;;;;4.82;1.77;;;;;;;2.57;76.14;101255.91;5048011;28;20057;-42
2023/02/26 07:33:27;;;;;;;7.45;1.67;;;;;;;2.54;77.03;101255.75;5055115;28;20041;-39
2023/02/26 07:35:54;;;;;;;2.08;1.48;;;;;;;2.60;75.66;101241.53;5069145;28;20059;-40
2023/02/26 07:38:21;;;;;;;3.83;1.50;;;;;;;2.61;76.49;101246.72;5069081;28;20328;-41
2023/02/26 07:40:47;;;;;;;2.97;1.88;;;;;;;2.63;76.45;101245.09;5069037;28;20056;-42
2023/02/26 07:43:14;;;;;;;9.60;2.17;;;;;;;2.66;76.07;101245.25;5065288;28;20109;-42
2023/02/26 07:45:41;;;;;;;5.47;2.28;;;;;;;2.71;75.81;101242.94;5068400;28;20082;-41
2023/02/26 07:48:07;;;;;;;8.20;2.55;;;;;;;2.74;75.88;101248.19;5068670;28;20090;-41
2023/02/26 07:50:34;;;;;;;8.57;1.75;;;;;;;2.77;75.70;101250.88;5068963;28;20504;-43
2023/02/26 07:53:00;;;;;;;5.70;2.95;;;;;;;2.79;76.02;101246.72;5067003;28;20076;-43
2023/02/26 07:55:27;;;;;;;8.48;1.88;;;;;;;2.85;76.07;101251.28;5067034;28;20070;-40
2023/02/26 07:57:54;;;;;;;2.92;2.33;;;;;;;2.89;76.64;101257.41;5068938;28;20103;-42
2023/02/26 08:00:20;;;;;;;5.80;2.85;;;;;;;2.92;76.78;101266.13;5068280;28;20072;-41
2023/02/26 08:02:47;;;;;;;2.88;1.05;;;;;;;2.98;75.50;101269.78;5068288;28;20044;-43
2023/02/26 08:05:14;;;;;;;3.92;1.50;;;;;;;3.01;76.10;101273.34;5033707;28;20448;-41
2023/02/26 08:07:40;;;;;;;6.35;1.27;;;;;;;3.04;75.46;101273.50;5047929;28;20053;-41
2023/02/26 08:10:09;;;;;;;6.35;2.05;;;;;;;3.11;75.50;101273.78;5060131;28;20089;-42
2023/02/26 08:12:36;;;;;;;4.10;1.63;;;;;;;3.19;76.04;101282.72;5044695;28;20041;-39
2023/02/26 08:15:04;;;;;;;3.25;1.67;;;;;;;3.31;75.34;101282.44;5028050;28;20048;-42
2023/02/26 08:17:30;;;;;;;2.50;1.35;;;;;;;3.44;75.13;101288.97;5040590;28;20041;-44
2023/02/26 08:19:57;;;;;;;3.63;1.75;;;;;;;3.57;75.51;101286.19;5087798;28;20549;-40
2023/02/26 08:22:24;;;;;;;6.82;1.02;;;;;;;3.70;74.94;101291.88;5087607;28;20454;-42
2023/02/26 08:24:50;;;;;;;3.10;1.38;;;;;;;3.82;74.91;101287.28;5086511;28;20113;-44
2023/02/26 08:27:17;;;;;;;2.60;2.15;;;;;;;3.97;74.54;101299.06;5062924;28;20045;-43
2023/02/26 08:29:45;;;;;;;14.15;1.67;;;;;;;4.15;74.74;101295.56;5044670;28;20052;-40
2023/02/26 08:32:12;;;;;;;5.47;1.95;;;;;;;4.37;74.21;101298.25;5045742;28;20052;-42
2023/02/26 08:34:39;;;;;;;2.95;1.92;;;;;;;4.71;73.85;101303.03;5064714;28;20055;-43
2023/02/26 08:37:08;;;;;;;8.23;2.38;;;;;;;4.98;73.70;101298.16;5055814;28;20072;-45
2023/02/26 08:39:37;;;;;;;7.93;2.45;;;;;;;5.36;73.79;101305.63;5047487;28;20080;-44
2023/02/26 08:42:05;;;;;;;8.85;2.30;;;;;;;5.88;73.36;101315.28;5030728;28;20057;-41
2023/02/26 08:44:32;;;;;;;4.88;1.73;;;;;;;6.47;72.28;101317.41;5044873;28;20057;-42
2023/02/26 08:46:58;;;;;;;11.05;1.50;;;;;;;7.22;70.94;101322.41;5087511;28;20087;-40
2023/02/26 08:49:25;;;;;;;3.88;2.15;;;;;;;8.17;69.37;101330.34;5087819;28;20101;-43
2023/02/26 08:51:52;;;;;;;3.72;1.77;;;;;;;9.01;67.94;101329.06;5068559;28;20128;-43
2023/02/26 08:54:19;;;;;;;9.93;1.50;;;;;;;9.74;66.88;101323.00;5072556;28;20063;-45
2023/02/26 08:56:45;;;;;;;5.20;2.20;;;;;;;10.45;65.11;101335.63;5070673;28;20119;-43
2023/02/26 08:59:12;;;;;;;4.55;1.92;;;;;;;11.07;63.84;101329.75;5086465;28;20095;-41
2023/02/26 09:01:39;;;;;;;5.88;2.05;;;;;;;11.72;62.88;101335.84;5065747;28;20056;-43
2023/02/26 09:04:05;;;;;;;6.78;1.73;;;;;;;12.45;61.00;101339.34;5042444;28;20379;-41
2023/02/26 09:06:32;;;;;;;7.57;2.45;;;;;;;13.20;59.87;101339.97;5047301;28;20076;-44
2023/02/26 09:08:58;;;;;;;4.90;1.70;;;;;;;13.87;58.15;101336.91;5047722;28;20098;-42
2023/02/26 09:11:25;;;;;;;4.22;3.45;;;;;;;14.48;57.00;101339.69;5047643;28;20052;-43
2023/02/26 09:13:52;;;;;;;7.90;2.17;;;;;;;15.10;56.04;101337.13;5041952;28;20136;-45
2023/02/26 09:16:19;;;;;;;5.70;2.47;;;;;;;15.62;54.65;101337.03;5027307;28;20073;-46
2023/02/26 09:18:45;;;;;;;5.68;2.03;;;;;;;15.92;52.05;101345.63;5026553;28;20053;-42
2023/02/26 09:21:12;;;;;;;4.43;2.22;;;;;;;16.11;50.25;101346.44;5037547;28;20083;-44
2023/02/26 09:23:38;;;;;;;6.35;2.03;;;;;;;16.30;50.23;101346.34;5057470;28;20113;-48
2023/02/26 09:26:07;;;;;;;4.35;1.85;;;;;;;16.28;50.29;101353.34;5067500;28;20048;-43
2023/02/26 09:28:34;;;;;;;4.30;0.60;;;;;;;16.10;47.69;101365.63;5066901;28;20565;-40
2023/02/26 09:31:01;;;;;;;3.58;2.33;;;;;;;16.10;48.73;101376.06;5064577;28;20496;-50
2023/02/26 09:33:28;;;;;;;6.15;1.77;;;;;;;16.18;46.51;101379.50;5067252;28;20056;-48
2023/02/26 09:35:55;;;;;;;6.22;2.65;;;;;;;16.26;47.65;101376.88;5063082;28;20087;-49
2023/02/26 09:38:21;;;;;;;5.72;2.13;;;;;;;16.51;47.81;101378.50;5065760;28;20082;-44
2023/02/26 09:40:59;;;;;;;4.43;2.17;;;;;;;16.74;46.97;101387.91;5067015;28;20985;-45
2023/02/26 09:46:21;;;;;;;6.30;0.75;;;;;;;17.46;46.87;101386.47;5040598;27;20622;-48
2023/02/26 09:48:51;;;;;;;3.85;0.63;;;;;;;17.58;46.29;101392.47;5025038;28;20065;-45
2023/02/26 09:51:21;;;;;;;3.47;0.65;;;;;;;17.75;45.59;101400.13;5024615;28;20041;-47
2023/02/26 09:53:49;;;;;;;7.20;0.82;;;;;;;17.87;43.15;101399.13;5023769;28;20092;-46
2023/02/26 09:56:20;;;;;;;6.70;0.95;;;;;;;17.23;43.39;101401.53;5024887;28;20482;-46
2023/02/26 09:58:47;;;;;;;6.95;0.68;;;;;;;16.07;44.52;101407.44;5024373;28;20053;-46
2023/02/26 10:01:25;;;;;;;5.03;0.70;;;;;;;15.13;45.02;101402.38;5027456;28;20127;-49
2023/02/26 10:12:51;;;;;;;6.65;1.00;;;;;;;12.28;49.33;101409.28;5044636;27;20390;-45
2023/02/26 10:15:41;;;;;;;4.97;0.57;;;;;;;11.73;50.00;101410.28;5022208;28;20132;-45
2023/02/26 10:23:39;;;;;;;6.43;1.90;;;;;;;10.95;52.31;101424.63;5081965;27;20398;-44
2023/02/26 10:26:18;;;;;;;8.57;1.95;;;;;;;11.88;52.96;101429.50;5054327;28;20048;-47
2023/02/26 10:28:56;;;;;;;4.03;1.23;;;;;;;12.03;50.73;101434.91;5076115;28;20122;-44
2023/02/26 10:42:10;;;;;;;4.18;0.70;;;;;;;10.96;50.78;101428.94;5071695;27;20413;-41
2023/02/26 10:44:48;;;;;;;3.60;0.50;;;;;;;10.67;51.37;101437.03;5023085;28;20125;-46
2023/02/26 10:50:02;;;;;;;3.13;0.75;;;;;;;10.21;51.27;101435.25;5026933;27;20406;-42
2023/02/26 10:52:32;;;;;;;4.15;0.73;;;;;;;10.61;51.19;101434.34;5023689;28;20091;-44
2023/02/26 10:55:25;;;;;;;1.50;0.75;;;;;;;11.13;50.46;101436.13;5041000;28;20038;-42
2023/02/26 10:58:04;;;;;;;5.13;1.05;;;;;;;11.46;50.34;101432.38;5051037;28;20095;-43
2023/02/26 11:00:34;;;;;;;2.17;0.75;;;;;;;11.63;48.65;101439.53;5042489;28;20056;-45
2023/02/26 11:05:02;;;;;;;4.03;0.90;;;;;;;11.18;49.64;101448.34;5004207;27;20415;-48
2023/02/26 11:07:36;;;;;;;2.58;0.50;;;;;;;10.94;49.55;101459.13;5003517;28;20058;-44
2023/02/26 11:10:03;;;;;;;2.92;0.70;;;;;;;10.80;50.45;101469.25;5004132;28;20085;-46
2023/02/26 11:12:31;;;;;;;5.10;0.45;;;;;;;10.65;49.54;101462.06;5004580;28;20077;-44
2023/02/26 11:15:00;;;;;;;4.43;0.52;;;;;;;10.69;51.72;101473.34;5004757;28;20129;-44
2023/02/26 11:17:31;;;;;;;1.38;0.32;;;;;;;10.83;50.66;101471.03;5004612;28;20054;-43
2023/02/26 11:20:01;;;;;;;5.03;0.30;;;;;;;10.85;50.98;101472.81;5004715;28;20042;-46
2023/02/26 11:22:31;;;;;;;;;;;;;;;10.63;48.25;101469.81;4996255;28;20587;-43
2023/02/26 11:24:58;;;;;;;2.35;0.82;;;;;;;10.40;48.31;101477.06;4990294;28;20613;-45
2023/02/26 11:27:30;;;;;;;5.57;1.23;;;;;;;10.12;49.08;101485.13;5002687;28;20065;-45
2023/02/26 11:30:02;;;;;;;0.98;0.30;;;;;;;9.92;48.99;101484.66;5002636;28;20414;-44
2023/02/26 11:32:32;;;;;;;3.05;0.40;;;;;;;9.67;49.07;101489.25;5003562;28;20054;-44
2023/02/26 11:34:58;;;;;;;;;;;;;;;9.37;48.49;101495.41;5003322;28;20117;-42
2023/02/26 11:37:33;;;;;;;2.88;0.50;;;;;;;9.32;50.50;101491.84;4996590;28;20334;-42
2023/02/26 11:40:23;;;;;;;1.85;0.30;;;;;;;9.12;49.21;101493.06;4992542;28;20050;-46
2023/02/26 11:42:55;;;;;;;2.35;0.35;;;;;;;9.01;49.72;101497.06;5002077;28;20498;-44
2023/02/26 11:45:23;;;;;;;2.40;0.52;;;;;;;8.94;50.51;101501.19;5004255;28;20506;-48
2023/02/26 11:48:01;;;;;;;1.33;0.65;;;;;;;8.87;50.40;101502.75;5002918;28;20057;-43
2023/02/26 11:50:29;;;;;;;2.30;0.28;;;;;;;8.67;49.99;101509.94;4985144;28;20070;-46
2023/02/26 11:53:04;;;;;;;1.52;0.52;;;;;;;8.61;50.10;101509.72;5004179;28;20103;-43
2023/02/26 11:55:43;;;;;;;1.10;0.43;;;;;;;8.59;50.74;101508.84;4992915;28;20170;-43
2023/02/26 11:58:19;;;;;;;2.22;0.45;;;;;;;8.57;50.80;101515.66;5017226;28;20115;-44
2023/02/26 12:00:48;;;;;;;4.45;0.60;;;;;;;8.60;50.86;101510.56;5018129;28;20073;-43
2023/02/26 12:03:20;;;;;;;2.40;0.68;;;;;;;8.59;51.03;101516.56;5003533;28;20042;-43
2023/02/26 12:05:49;;;;;;;4.43;0.80;;;;;;;8.56;51.32;101516.47;4984349;28;20050;-42
2023/02/26 12:08:24;;;;;;;3.97;0.30;;;;;;;8.49;51.41;101524.00;4996403;28;20078;-44
2023/02/26 12:19:36;;;;;;;1.83;0.43;;;;;;;8.58;52.27;101522.59;5059710;28;20407;-44
2023/02/26 12:41:39;;;;;;;2.20;0.95;;;;;;;9.16;52.11;101516.41;5052512;28;20377;-43
2023/02/26 12:44:20;;;;;;;3.90;1.45;;;;;;;9.23;50.82;101524.34;5025499;28;20092;-44
2023/02/26 13:08:17;;;;;;;2.10;1.95;;;;;;;8.66;49.44;101521.09;5026939;27;20394;-43
2023/02/26 13:13:41;;;;;;;1.20;0.60;;;;;;;8.78;48.83;101519.69;5040239;27;20429;-43
2023/02/26 13:19:00;;;;;;;2.67;0.75;;;;;;;8.84;48.88;101527.59;5064597;28;20406;-44
2023/02/26 13:21:34;;;;;;;1.88;0.80;;;;;;;8.82;49.38;101521.53;5059422;28;20569;-45
2023/02/26 13:24:09;;;;;;;3.72;0.30;;;;;;;8.73;47.76;101528.19;5054439;28;20067;-45
2023/02/26 13:26:37;;;;;;;4.40;0.57;;;;;;;8.78;48.86;101525.72;5064933;28;20488;-45
2023/02/26 13:29:18;;;;;;;1.25;0.65;;;;;;;8.78;48.40;101519.69;5071580;28;20087;-46
2023/02/26 13:31:51;;;;;;;2.65;0.20;;;;;;;8.90;49.27;101525.19;5084372;28;20144;-42
2023/02/26 13:34:42;;;;;;;1.08;0.30;;;;;;;8.94;47.08;101527.03;5084635;28;20067;-42
2023/02/26 13:48:42;;;;;;;0.50;0.43;;;;;;;9.13;46.94;101512.91;5056985;28;20401;-45
2023/02/26 13:51:24;;;;;;;0.63;0.35;;;;;;;9.09;47.05;101510.22;5023314;28;20104;-44
2023/02/26 13:53:57;;;;;;;1.95;0.50;;;;;;;9.05;46.91;101508.38;5021224;28;20099;-44
2023/02/26 14:01:54;;;;;;;2.40;1.42;;;;;;;8.77;46.11;101508.47;5030581;27;20398;-42
2023/02/26 14:06:59;;;;;;;2.10;0.52;;;;;;;8.65;46.93;101514.16;5041560;27;20762;-42
2023/02/26 14:17:49;;;;;;;1.95;0.30;;;;;;;8.48;46.21;101511.94;5063478;28;20383;-44
2023/02/26 14:20:27;;;;;;;5.80;0.40;;;;;;;8.43;46.53;101503.19;5062028;28;20334;-44
2023/02/26 14:23:18;;;;;;;1.30;0.50;;;;;;;8.37;46.42;101508.16;5060969;28;20068;-44
2023/02/26 14:33:58;;;;;;;0.40;0.40;;;;;;;8.43;46.43;101526.41;5001789;28;20413;-43
2023/02/26 14:36:45;;;;;;;0.40;0.40;;;;;;;8.38;45.63;101520.25;4978729;28;20513;-41
2023/02/26 14:39:33;;;;;;;2.40;0.40;;;;;;;8.29;45.33;101514.78;4976402;28;21851;-43
2023/02/26 14:42:05;;;;;;;1.25;0.60;;;;;;;8.31;46.47;101508.00;4977542;28;20058;-44
2023/02/26 14:44:37;;;;;;;1.85;0.45;;;;;;;8.23;45.29;101521.53;4980284;28;20097;-43
2023/02/26 14:47:05;;;;;;;1.70;0.40;;;;;;;8.23;45.86;101523.22;4978689;28;20447;-46
2023/02/26 14:49:35;;;;;;;2.75;0.47;;;;;;;8.28;46.13;101515.63;4990877;23;20095;-44